Time;durP1;ratioP1;P1;durP2;ratioP2;P2;SDS_P1;SDS_P2;PMS_P1;PMS_P2;Temp;Humidity;BMP_temperature;BMP_pressure;BME280_temperature;BME280_humidity;BME280_pressure;Samples;Min_cycle;Max_cycle;Signal;HPM_P1;HPM_P2
2022/07/28 00:00:56;;;;;;;;;5.00;4.00;;;;;;;;5012641;28;51164;-65
2022/07/28 00:03:22;;;;;;;;;2.00;2.00;;;;;;;;5014812;28;50855;-64
2022/07/28 00:05:47;;;;;;;;;3.33;3.33;;;;;;;;5014254;28;51354;-65
2022/07/28 00:08:13;;;;;;;;;5.00;3.00;;;;;;;;5006883;28;52352;-65
2022/07/28 00:10:38;;;;;;;;;2.00;1.67;;;;;;;;5014574;28;50970;-64
2022/07/28 00:13:03;;;;;;;;;2.33;2.00;;;;;;;;5013968;28;51078;-63
2022/07/28 00:15:28;;;;;;;;;2.00;2.00;;;;;;;;5013502;28;50885;-64
2022/07/28 00:17:53;;;;;;;;;2.00;2.00;;;;;;;;5017401;28;51119;-63
2022/07/28 00:20:19;;;;;;;;;3.00;3.00;;;;;;;;5032582;28;51480;-64
2022/07/28 00:22:45;;;;;;;;;3.00;3.00;;;;;;;;5034648;28;50940;-64
2022/07/28 00:25:10;;;;;;;;;1.67;1.67;;;;;;;;5027148;28;50902;-64
2022/07/28 00:27:36;;;;;;;;;2.00;2.00;;;;;;;;5013987;28;52244;-63
2022/07/28 00:30:02;;;;;;;;;2.33;2.33;;;;;;;;5015971;28;51037;-65
2022/07/28 00:32:27;;;;;;;;;0.00;0.00;;;;;;;;4995233;28;51151;-65
2022/07/28 00:34:52;;;;;;;;;1.67;1.67;;;;;;;;5014011;28;51285;-63
2022/07/28 00:37:17;;;;;;;;;2.33;2.33;;;;;;;;5013089;28;51259;-64
2022/07/28 00:39:43;;;;;;;;;1.67;1.67;;;;;;;;5012739;28;50934;-63
2022/07/28 00:42:08;;;;;;;;;2.33;2.33;;;;;;;;5014583;28;50918;-63
2022/07/28 00:44:33;;;;;;;;;1.67;1.67;;;;;;;;5014010;28;51322;-63
2022/07/28 00:46:58;;;;;;;;;2.67;2.67;;;;;;;;5024578;28;52183;-64
2022/07/28 00:49:24;;;;;;;;;2.67;2.33;;;;;;;;5023954;28;51167;-64
2022/07/28 00:51:49;;;;;;;;;2.67;2.67;;;;;;;;5019879;28;50801;-64
2022/07/28 00:54:14;;;;;;;;;1.67;1.67;;;;;;;;5014845;28;50901;-64
2022/07/28 00:56:39;;;;;;;;;2.00;2.00;;;;;;;;5014569;28;51186;-64
2022/07/28 00:59:05;;;;;;;;;2.00;1.67;;;;;;;;5015662;28;51033;-64
2022/07/28 01:01:30;;;;;;;;;2.33;2.00;;;;;;;;5014573;28;50815;-64
2022/07/28 01:03:57;;;;;;;;;2.67;2.67;;;;;;;;5015292;28;50826;-64
2022/07/28 01:06:22;;;;;;;;;1.00;1.00;;;;;;;;5014477;28;50948;-64
2022/07/28 01:09:02;;;;;;;;;2.75;2.25;;;;;;;;5015572;28;50877;-64
2022/07/28 01:11:41;;;;;;;;;2.00;2.00;;;;;;;;5015069;28;51060;-63
2022/07/28 01:14:07;;;;;;;;;3.33;2.67;;;;;;;;5009622;28;50945;-64
2022/07/28 01:16:37;;;;;;;;;3.00;2.67;;;;;;;;5004916;28;51767;-64
2022/07/28 01:19:09;;;;;;;;;2.00;1.00;;;;;;;;5001889;28;51118;-64
2022/07/28 01:21:36;;;;;;;;;3.00;2.67;;;;;;;;5033591;28;51010;-63
2022/07/28 01:24:17;;;;;;;;;1.67;1.00;;;;;;;;5034070;28;51382;-64
2022/07/28 01:26:59;;;;;;;;;2.33;2.00;;;;;;;;5024783;28;52156;-64
2022/07/28 01:29:43;;;;;;;;;1.67;1.67;;;;;;;;5001694;28;51008;-64
2022/07/28 01:32:15;;;;;;;;;2.67;2.67;;;;;;;;5004853;28;51020;-64
2022/07/28 01:34:52;;;;;;;;;3.00;2.67;;;;;;;;5015794;28;50982;-63
2022/07/28 01:37:22;;;;;;;;;2.00;2.00;;;;;;;;5015661;28;50968;-65
2022/07/28 01:39:51;;;;;;;;;2.00;2.00;;;;;;;;5030036;28;50900;-63
2022/07/28 01:42:17;;;;;;;;;1.00;1.00;;;;;;;;5002717;28;51087;-63
2022/07/28 01:44:45;;;;;;;;;1.67;1.67;;;;;;;;5006114;28;51002;-64
2022/07/28 01:47:10;;;;;;;;;2.00;2.00;;;;;;;;5005653;28;51068;-64
2022/07/28 01:49:36;;;;;;;;;1.67;1.67;;;;;;;;5015821;28;51144;-67
2022/07/28 01:52:04;;;;;;;;;2.00;2.00;;;;;;;;5017674;28;51057;-64
2022/07/28 01:54:30;;;;;;;;;2.00;1.67;;;;;;;;5013150;28;51175;-64
2022/07/28 01:56:57;;;;;;;;;1.67;1.67;;;;;;;;5011886;28;52081;-65
2022/07/28 01:59:24;;;;;;;;;1.67;1.67;;;;;;;;5013083;28;50989;-64
2022/07/28 02:01:54;;;;;;;;;1.67;1.67;;;;;;;;5013902;28;50921;-65
2022/07/28 02:04:27;;;;;;;;;1.67;1.67;;;;;;;;5012840;28;50991;-65
2022/07/28 02:06:56;;;;;;;;;2.67;2.67;;;;;;;;5011114;28;52256;-64
2022/07/28 02:09:21;;;;;;;;;3.00;2.67;;;;;;;;5028326;28;51075;-64
2022/07/28 02:11:48;;;;;;;;;0.67;0.67;;;;;;;;5032207;28;50988;-65
2022/07/28 02:14:15;;;;;;;;;2.67;2.67;;;;;;;;5022172;28;50954;-63
2022/07/28 02:16:43;;;;;;;;;3.33;2.67;;;;;;;;5021714;28;51019;-64
2022/07/28 02:19:10;;;;;;;;;3.67;2.67;;;;;;;;5012031;28;50889;-64
2022/07/28 02:21:35;;;;;;;;;2.00;1.67;;;;;;;;5012284;28;51069;-63
2022/07/28 02:24:02;;;;;;;;;1.67;1.67;;;;;;;;5013329;28;50908;-63
2022/07/28 02:26:31;;;;;;;;;2.00;2.00;;;;;;;;5025573;28;52135;-64
2022/07/28 02:28:58;;;;;;;;;1.00;1.00;;;;;;;;5012981;28;50965;-64
2022/07/28 02:31:25;;;;;;;;;2.00;2.00;;;;;;;;5014219;28;51128;-64
2022/07/28 02:33:53;;;;;;;;;2.00;2.00;;;;;;;;5023145;28;51135;-63
2022/07/28 02:36:24;;;;;;;;;2.67;2.67;;;;;;;;5011685;28;51075;-63
2022/07/28 02:38:49;;;;;;;;;2.67;1.67;;;;;;;;5012498;28;51103;-63
2022/07/28 02:41:22;;;;;;;;;2.00;2.00;;;;;;;;5011426;28;51600;-63
2022/07/28 02:43:50;;;;;;;;;3.00;2.67;;;;;;;;5012854;28;51079;-63
2022/07/28 02:46:17;;;;;;;;;1.67;1.67;;;;;;;;5011936;28;51710;-64
2022/07/28 02:48:45;;;;;;;;;1.33;1.33;;;;;;;;5012581;28;51028;-63
2022/07/28 02:51:11;;;;;;;;;1.33;1.33;;;;;;;;5017041;28;50989;-63
2022/07/28 02:53:37;;;;;;;;;1.67;0.67;;;;;;;;5020225;28;51138;-64
2022/07/28 02:56:02;;;;;;;;;3.67;3.67;;;;;;;;5003856;28;51907;-63
2022/07/28 02:58:28;;;;;;;;;3.00;2.67;;;;;;;;5016134;28;51217;-63
2022/07/28 03:00:54;;;;;;;;;1.67;1.67;;;;;;;;5020279;28;51055;-63
2022/07/28 03:03:20;;;;;;;;;3.00;2.00;;;;;;;;5036263;28;51044;-63
2022/07/28 03:05:45;;;;;;;;;3.00;2.67;;;;;;;;5030267;28;51228;-64
2022/07/28 03:08:11;;;;;;;;;2.33;2.33;;;;;;;;5015558;28;51022;-64
2022/07/28 03:10:36;;;;;;;;;3.00;3.00;;;;;;;;5015796;28;51145;-64
2022/07/28 03:13:02;;;;;;;;;2.00;2.00;;;;;;;;5014546;28;51302;-64
2022/07/28 03:15:28;;;;;;;;;2.67;2.67;;;;;;;;5014195;28;52121;-64
2022/07/28 03:17:53;;;;;;;;;2.00;2.00;;;;;;;;4998064;28;50955;-64
2022/07/28 03:20:18;;;;;;;;;3.00;3.00;;;;;;;;5015167;28;50964;-63
2022/07/28 03:22:43;;;;;;;;;2.67;2.00;;;;;;;;5015988;28;51032;-65
2022/07/28 03:25:15;;;;;;;;;2.00;1.67;;;;;;;;5014455;28;54234;-65
2022/07/28 03:27:42;;;;;;;;;1.67;1.67;;;;;;;;5017284;28;51096;-66
2022/07/28 03:30:10;;;;;;;;;3.33;3.33;;;;;;;;5014616;28;51203;-63
2022/07/28 03:32:37;;;;;;;;;3.00;3.00;;;;;;;;5015390;28;50880;-64
2022/07/28 03:35:03;;;;;;;;;3.33;3.33;;;;;;;;5014835;28;52016;-63
2022/07/28 03:37:34;;;;;;;;;3.33;3.00;;;;;;;;5015339;28;52038;-63
2022/07/28 03:39:59;;;;;;;;;3.00;3.00;;;;;;;;5015171;28;50946;-63
2022/07/28 03:42:26;;;;;;;;;4.00;3.00;;;;;;;;5014648;28;51087;-63
2022/07/28 03:44:51;;;;;;;;;4.00;4.00;;;;;;;;5014105;28;51064;-63
2022/07/28 03:47:20;;;;;;;;;4.00;4.00;;;;;;;;5014970;28;51018;-63
2022/07/28 03:49:46;;;;;;;;;4.33;4.33;;;;;;;;5014983;28;51160;-62
2022/07/28 03:52:11;;;;;;;;;3.67;3.67;;;;;;;;5012857;28;51056;-63
2022/07/28 03:54:36;;;;;;;;;3.33;3.00;;;;;;;;5025155;28;51170;-64
2022/07/28 03:57:01;;;;;;;;;3.00;3.00;;;;;;;;5014914;28;51170;-63
2022/07/28 03:59:26;;;;;;;;;3.33;2.67;;;;;;;;5015215;28;51096;-63
2022/07/28 04:01:53;;;;;;;;;5.67;4.67;;;;;;;;5013163;28;51313;-64
2022/07/28 04:04:18;;;;;;;;;4.33;4.00;;;;;;;;5016931;28;51921;-64
2022/07/28 04:06:43;;;;;;;;;4.00;4.00;;;;;;;;5014436;28;51097;-65
2022/07/28 04:09:09;;;;;;;;;4.00;4.00;;;;;;;;5016244;28;50934;-64
2022/07/28 04:11:34;;;;;;;;;3.33;2.67;;;;;;;;5016250;28;50849;-64
2022/07/28 04:13:59;;;;;;;;;3.00;3.00;;;;;;;;5015581;28;51069;-64
2022/07/28 04:16:24;;;;;;;;;3.67;3.67;;;;;;;;5006880;28;51008;-64
2022/07/28 04:18:49;;;;;;;;;3.33;3.33;;;;;;;;5013993;28;51229;-64
2022/07/28 04:21:15;;;;;;;;;4.00;4.00;;;;;;;;5014778;28;50899;-63
2022/07/28 04:23:40;;;;;;;;;3.33;3.33;;;;;;;;5013289;28;53358;-65
2022/07/28 04:26:05;;;;;;;;;5.67;5.00;;;;;;;;5014575;28;50985;-64
2022/07/28 04:28:30;;;;;;;;;3.67;3.67;;;;;;;;5014492;28;51160;-64
2022/07/28 04:30:56;;;;;;;;;3.67;3.00;;;;;;;;5012903;28;51448;-65
2022/07/28 04:33:21;;;;;;;;;4.00;4.00;;;;;;;;5012960;28;51170;-64
2022/07/28 04:35:46;;;;;;;;;4.33;4.33;;;;;;;;5016416;28;51002;-64
2022/07/28 04:38:13;;;;;;;;;4.33;4.33;;;;;;;;5018272;28;51092;-64
2022/07/28 04:40:40;;;;;;;;;4.33;4.33;;;;;;;;5017641;28;50941;-63
2022/07/28 04:43:06;;;;;;;;;3.67;3.67;;;;;;;;5013871;28;51025;-64
2022/07/28 04:45:31;;;;;;;;;4.67;4.67;;;;;;;;5014043;28;51036;-64
2022/07/28 04:47:56;;;;;;;;;3.67;3.33;;;;;;;;5014017;28;51036;-64
2022/07/28 04:50:21;;;;;;;;;5.67;5.33;;;;;;;;5016978;28;50914;-64
2022/07/28 04:52:49;;;;;;;;;2.33;2.33;;;;;;;;5017785;28;50995;-65
2022/07/28 04:55:15;;;;;;;;;3.67;3.67;;;;;;;;5019429;28;50885;-64
2022/07/28 04:57:41;;;;;;;;;3.00;2.67;;;;;;;;5013675;28;51224;-63
2022/07/28 05:00:11;;;;;;;;;4.33;3.67;;;;;;;;5014150;28;50954;-63
2022/07/28 05:02:37;;;;;;;;;4.00;4.00;;;;;;;;5017753;28;51231;-63
2022/07/28 05:05:02;;;;;;;;;4.67;3.67;;;;;;;;5021274;28;51075;-65
2022/07/28 05:07:27;;;;;;;;;4.33;3.33;;;;;;;;5012709;28;51139;-65
2022/07/28 05:09:52;;;;;;;;;4.33;4.33;;;;;;;;5014152;28;51197;-63
2022/07/28 05:12:17;;;;;;;;;2.33;1.67;;;;;;;;5013697;28;52163;-63
2022/07/28 05:14:43;;;;;;;;;5.33;4.67;;;;;;;;5014965;28;50981;-64
2022/07/28 05:17:08;;;;;;;;;5.33;4.67;;;;;;;;5004358;28;51076;-64
2022/07/28 05:19:33;;;;;;;;;4.00;4.00;;;;;;;;5011592;28;51203;-63
2022/07/28 05:21:58;;;;;;;;;3.67;3.33;;;;;;;;5013378;28;51869;-62
2022/07/28 05:24:23;;;;;;;;;3.00;3.00;;;;;;;;5013527;28;50988;-64
2022/07/28 05:26:49;;;;;;;;;4.00;4.00;;;;;;;;5013258;28;51064;-63
2022/07/28 05:29:14;;;;;;;;;7.00;7.00;;;;;;;;5013699;28;51012;-63
2022/07/28 05:31:39;;;;;;;;;5.00;5.00;;;;;;;;5012145;28;51014;-63
2022/07/28 05:34:05;;;;;;;;;4.33;4.33;;;;;;;;5005174;28;51063;-63
2022/07/28 05:36:30;;;;;;;;;4.67;4.00;;;;;;;;5013107;28;50982;-64
2022/07/28 05:38:55;;;;;;;;;5.67;4.67;;;;;;;;5013608;28;50978;-63
2022/07/28 05:41:21;;;;;;;;;4.67;4.33;;;;;;;;5012201;28;51256;-64
2022/07/28 05:43:46;;;;;;;;;4.67;4.67;;;;;;;;5013018;28;50962;-65
2022/07/28 05:46:11;;;;;;;;;3.33;3.33;;;;;;;;5013344;28;51073;-63
2022/07/28 05:48:36;;;;;;;;;3.67;3.67;;;;;;;;5014808;28;51213;-63
2022/07/28 05:51:01;;;;;;;;;5.00;5.00;;;;;;;;5015136;28;51127;-63
2022/07/28 05:53:27;;;;;;;;;4.00;3.67;;;;;;;;5017319;28;50973;-65
2022/07/28 05:55:52;;;;;;;;;3.00;3.00;;;;;;;;5013086;28;50993;-63
2022/07/28 05:58:21;;;;;;;;;7.00;7.00;;;;;;;;5013083;28;51413;-63
2022/07/28 06:00:46;;;;;;;;;5.00;4.33;;;;;;;;5011022;28;52259;-62
2022/07/28 06:03:11;;;;;;;;;7.67;7.67;;;;;;;;5012909;28;51081;-64
2022/07/28 06:05:36;;;;;;;;;8.00;5.33;;;;;;;;5011453;28;51097;-63
2022/07/28 06:08:02;;;;;;;;;4.00;4.00;;;;;;;;5012859;28;50927;-65
2022/07/28 06:10:57;;;;;;;;;5.00;5.00;;;;;;;;5012228;28;52280;-63
2022/07/28 06:13:16;;;;;;;;;4.00;4.00;;;;;;;;5012441;28;50914;-63
2022/07/28 06:15:41;;;;;;;;;5.00;5.00;;;;;;;;5012717;28;50902;-65
2022/07/28 06:18:06;;;;;;;;;3.00;3.00;;;;;;;;5012116;28;51117;-64
2022/07/28 06:20:32;;;;;;;;;6.00;4.67;;;;;;;;5011681;28;52078;-64
2022/07/28 06:22:57;;;;;;;;;6.33;5.67;;;;;;;;5012958;28;51022;-64
2022/07/28 06:25:23;;;;;;;;;5.67;5.67;;;;;;;;5013127;28;51049;-64
2022/07/28 06:27:49;;;;;;;;;4.00;4.00;;;;;;;;5014490;28;50867;-64
2022/07/28 06:30:15;;;;;;;;;5.33;5.00;;;;;;;;5012901;28;51147;-64
2022/07/28 06:32:40;;;;;;;;;6.67;6.00;;;;;;;;5012178;28;51106;-64
2022/07/28 06:35:06;;;;;;;;;6.00;5.00;;;;;;;;5011873;28;51130;-65
2022/07/28 06:37:32;;;;;;;;;3.67;3.67;;;;;;;;5012568;28;50909;-64
2022/07/28 06:39:57;;;;;;;;;4.00;4.00;;;;;;;;5011993;28;51261;-64
2022/07/28 06:42:22;;;;;;;;;5.00;5.00;;;;;;;;5011323;28;51139;-64
2022/07/28 06:44:49;;;;;;;;;4.67;4.67;;;;;;;;5012060;28;51121;-65
2022/07/28 06:47:14;;;;;;;;;4.67;4.67;;;;;;;;5011085;28;51146;-64
2022/07/28 06:49:40;;;;;;;;;4.33;4.00;;;;;;;;5011368;28;52283;-65
2022/07/28 06:52:05;;;;;;;;;5.00;4.67;;;;;;;;5014127;28;51123;-64
2022/07/28 06:54:30;;;;;;;;;5.00;5.00;;;;;;;;5022923;28;51305;-64
2022/07/28 06:56:56;;;;;;;;;5.00;5.00;;;;;;;;5012803;28;50836;-64
2022/07/28 06:59:21;;;;;;;;;4.67;4.00;;;;;;;;5012742;28;52073;-64
2022/07/28 07:01:47;;;;;;;;;5.33;5.00;;;;;;;;5023299;28;50898;-63
2022/07/28 07:04:12;;;;;;;;;5.00;4.67;;;;;;;;5033110;28;51186;-64
2022/07/28 07:06:37;;;;;;;;;5.00;5.00;;;;;;;;5021091;28;51417;-64
2022/07/28 07:09:02;;;;;;;;;7.00;6.00;;;;;;;;5012262;28;50965;-64
2022/07/28 07:11:27;;;;;;;;;5.67;5.33;;;;;;;;5012360;28;51004;-64
2022/07/28 07:13:53;;;;;;;;;6.00;5.00;;;;;;;;5012493;28;51072;-64
2022/07/28 07:16:18;;;;;;;;;5.00;5.00;;;;;;;;5004204;28;51322;-64
2022/07/28 07:18:44;;;;;;;;;8.00;7.00;;;;;;;;5008384;28;52018;-64
2022/07/28 07:21:12;;;;;;;;;5.00;5.00;;;;;;;;5008180;28;51191;-65
2022/07/28 07:23:37;;;;;;;;;8.00;7.00;;;;;;;;5012127;28;51072;-64
2022/07/28 07:26:05;;;;;;;;;5.00;5.00;;;;;;;;5012497;28;50927;-63
2022/07/28 07:28:32;;;;;;;;;6.67;6.00;;;;;;;;5011277;28;51233;-63
2022/07/28 07:30:57;;;;;;;;;6.33;6.33;;;;;;;;5009472;28;51316;-64
2022/07/28 07:33:22;;;;;;;;;13.00;13.00;;;;;;;;5017013;28;50999;-64
2022/07/28 07:35:48;;;;;;;;;6.00;6.00;;;;;;;;5019850;28;50857;-63
2022/07/28 07:38:13;;;;;;;;;6.00;6.00;;;;;;;;5011043;28;52146;-64
2022/07/28 07:40:38;;;;;;;;;7.33;6.33;;;;;;;;5010844;28;50969;-65
2022/07/28 07:43:04;;;;;;;;;9.00;7.67;;;;;;;;5014085;28;51242;-64
2022/07/28 07:45:29;;;;;;;;;10.00;9.00;;;;;;;;5013647;28;51278;-64
2022/07/28 07:47:54;;;;;;;;;9.00;7.67;;;;;;;;5014381;28;52070;-64
2022/07/28 07:50:19;;;;;;;;;5.33;5.33;;;;;;;;5015985;28;50959;-64
2022/07/28 07:52:45;;;;;;;;;7.00;7.00;;;;;;;;5016636;28;51156;-64
2022/07/28 07:55:10;;;;;;;;;6.00;5.67;;;;;;;;5015422;28;51046;-64
2022/07/28 07:57:35;;;;;;;;;7.00;6.67;;;;;;;;5014672;28;51027;-64
2022/07/28 08:00:06;;;;;;;;;6.67;6.00;;;;;;;;5014023;28;50972;-65
2022/07/28 08:02:31;;;;;;;;;6.00;6.00;;;;;;;;5033127;28;51263;-63
2022/07/28 08:04:57;;;;;;;;;7.33;7.00;;;;;;;;5034167;28;51081;-64
2022/07/28 08:07:22;;;;;;;;;7.67;6.67;;;;;;;;5034033;28;51034;-64
2022/07/28 08:09:48;;;;;;;;;6.33;5.00;;;;;;;;5032414;28;50912;-65
2022/07/28 08:12:13;;;;;;;;;5.00;5.00;;;;;;;;5014598;28;50835;-65
2022/07/28 08:14:38;;;;;;;;;6.00;6.00;;;;;;;;5015509;28;51056;-65
2022/07/28 08:17:04;;;;;;;;;6.67;6.67;;;;;;;;5008737;28;51806;-64
2022/07/28 08:19:29;;;;;;;;;6.00;6.00;;;;;;;;5034265;28;51257;-63
2022/07/28 08:21:54;;;;;;;;;7.00;7.00;;;;;;;;5031987;28;51266;-64
2022/07/28 08:24:19;;;;;;;;;5.67;5.67;;;;;;;;5014433;28;51341;-63
2022/07/28 08:26:45;;;;;;;;;4.33;4.33;;;;;;;;5013657;28;51253;-63
2022/07/28 08:29:10;;;;;;;;;5.00;5.00;;;;;;;;5014067;28;50993;-63
2022/07/28 08:31:35;;;;;;;;;7.00;6.00;;;;;;;;5014172;28;50992;-62
2022/07/28 08:34:02;;;;;;;;;5.00;4.67;;;;;;;;5011962;28;51394;-63
2022/07/28 08:36:27;;;;;;;;;6.00;6.00;;;;;;;;5009781;28;51170;-64
2022/07/28 08:38:52;;;;;;;;;6.00;6.00;;;;;;;;5012385;28;50899;-63
2022/07/28 08:41:36;;;;;;;;;5.67;5.67;;;;;;;;5011615;28;51051;-64
2022/07/28 08:44:02;;;;;;;;;5.67;5.67;;;;;;;;5014086;28;50990;-62
2022/07/28 08:46:32;;;;;;;;;5.33;5.33;;;;;;;;5011693;28;51118;-64
2022/07/28 08:48:58;;;;;;;;;4.00;4.00;;;;;;;;5013629;28;51008;-64
2022/07/28 08:51:26;;;;;;;;;6.33;6.33;;;;;;;;5014440;28;50921;-65
2022/07/28 08:53:51;;;;;;;;;8.00;8.00;;;;;;;;5011418;28;51366;-65
2022/07/28 08:56:17;;;;;;;;;7.00;7.00;;;;;;;;5013198;28;51697;-63
2022/07/28 08:58:42;;;;;;;;;5.00;5.00;;;;;;;;5013355;28;51088;-64
2022/07/28 09:01:09;;;;;;;;;5.00;4.00;;;;;;;;5018160;28;50990;-64
2022/07/28 09:03:35;;;;;;;;;4.67;4.33;;;;;;;;5020021;28;51010;-66
2022/07/28 09:06:00;;;;;;;;;5.67;5.67;;;;;;;;5009971;28;50929;-64
2022/07/28 09:08:26;;;;;;;;;6.00;5.00;;;;;;;;5012180;28;50974;-65
2022/07/28 09:10:51;;;;;;;;;7.33;7.33;;;;;;;;5010803;28;51365;-64
2022/07/28 09:13:17;;;;;;;;;6.00;6.00;;;;;;;;5012562;28;51094;-63
2022/07/28 09:15:45;;;;;;;;;6.00;6.00;;;;;;;;5010524;28;52168;-65
2022/07/28 09:18:12;;;;;;;;;5.50;5.50;;;;;;;;5011723;28;51048;-63
2022/07/28 09:20:37;;;;;;;;;5.00;5.00;;;;;;;;5011731;28;51155;-64
2022/07/28 09:23:05;;;;;;;;;5.00;5.00;;;;;;;;5011914;28;50996;-63
2022/07/28 09:25:30;;;;;;;;;4.00;4.00;;;;;;;;5011767;28;51218;-64
2022/07/28 09:28:04;;;;;;;;;6.00;4.00;;;;;;;;5010862;28;50913;-64
2022/07/28 09:30:30;;;;;;;;;6.00;5.00;;;;;;;;5011531;28;50917;-64
2022/07/28 09:33:09;;;;;;;;;5.00;5.00;;;;;;;;5011860;28;51354;-65
2022/07/28 09:35:41;;;;;;;;;4.00;4.00;;;;;;;;5010990;28;52255;-64
2022/07/28 09:38:06;;;;;;;;;5.00;5.00;;;;;;;;5012299;28;50997;-64
2022/07/28 09:40:31;;;;;;;;;4.00;4.00;;;;;;;;5010387;28;51013;-64
2022/07/28 09:42:57;;;;;;;;;4.33;4.33;;;;;;;;5011664;28;50828;-65
2022/07/28 09:45:26;;;;;;;;;5.67;5.67;;;;;;;;5010850;28;51069;-64
2022/07/28 09:48:07;;;;;;;;;6.00;6.00;;;;;;;;5012266;28;50986;-66
2022/07/28 09:50:33;;;;;;;;;3.33;3.33;;;;;;;;5016450;28;51699;-64
2022/07/28 09:53:01;;;;;;;;;5.00;4.00;;;;;;;;5012873;28;50831;-64
2022/07/28 09:55:26;;;;;;;;;6.67;6.33;;;;;;;;5025383;28;51994;-65
2022/07/28 09:57:53;;;;;;;;;3.00;3.00;;;;;;;;5012153;28;51104;-63
2022/07/28 10:00:27;;;;;;;;;3.00;3.00;;;;;;;;5011393;28;51083;-64
2022/07/28 10:02:52;;;;;;;;;4.67;4.67;;;;;;;;5002532;28;51145;-65
2022/07/28 10:05:18;;;;;;;;;4.33;4.33;;;;;;;;4980313;28;1232251;-64
2022/07/28 10:07:47;;;;;;;;;4.00;4.00;;;;;;;;5012372;28;51076;-64
2022/07/28 10:10:12;;;;;;;;;4.00;4.00;;;;;;;;5011309;28;51060;-65
2022/07/28 10:12:37;;;;;;;;;2.67;2.67;;;;;;;;5013012;28;51440;-64
2022/07/28 10:17:57;;;;;;;;;5.00;5.00;;;;;;;;5004827;28;50924;-64
2022/07/28 10:20:22;;;;;;;;;4.67;4.67;;;;;;;;5012567;28;51020;-64
2022/07/28 10:22:48;;;;;;;;;5.00;4.00;;;;;;;;5013098;28;51439;-64
2022/07/28 10:25:14;;;;;;;;;3.67;3.67;;;;;;;;5012186;28;52232;-64
2022/07/28 10:27:40;;;;;;;;;3.00;2.33;;;;;;;;5011067;28;51004;-64
2022/07/28 10:30:05;;;;;;;;;4.33;4.00;;;;;;;;5017347;28;51138;-64
2022/07/28 10:32:32;;;;;;;;;3.00;3.00;;;;;;;;5020453;28;51360;-64
2022/07/28 10:35:05;;;;;;;;;1.33;1.33;;;;;;;;5016428;28;51072;-64
2022/07/28 10:37:34;;;;;;;;;5.67;5.67;;;;;;;;5013073;28;51075;-64
2022/07/28 10:40:01;;;;;;;;;2.00;2.00;;;;;;;;5025185;28;51233;-65
2022/07/28 10:42:27;;;;;;;;;4.33;4.33;;;;;;;;5024234;28;51033;-64
2022/07/28 10:44:53;;;;;;;;;3.00;3.00;;;;;;;;5031470;28;51910;-64
2022/07/28 10:47:19;;;;;;;;;2.00;2.00;;;;;;;;5018878;28;51074;-64
2022/07/28 10:49:45;;;;;;;;;4.00;4.00;;;;;;;;5019265;28;51264;-65
2022/07/28 10:52:12;;;;;;;;;2.67;2.00;;;;;;;;5016001;28;51064;-64
2022/07/28 10:54:44;;;;;;;;;4.33;3.00;;;;;;;;4998648;28;51246;-64
2022/07/28 10:57:10;;;;;;;;;3.33;3.00;;;;;;;;5011500;28;51139;-64
2022/07/28 10:59:54;;;;;;;;;3.00;3.00;;;;;;;;5007111;28;51112;-64
2022/07/28 11:02:38;;;;;;;;;5.00;4.00;;;;;;;;5026157;28;51473;-64
2022/07/28 11:05:03;;;;;;;;;5.00;4.67;;;;;;;;5028874;28;52017;-64
2022/07/28 11:07:38;;;;;;;;;3.00;3.00;;;;;;;;5010546;28;50894;-64
2022/07/28 11:10:16;;;;;;;;;2.00;2.00;;;;;;;;5012287;28;51060;-65
2022/07/28 11:12:46;;;;;;;;;3.00;3.00;;;;;;;;5011844;28;51195;-64
2022/07/28 11:15:24;;;;;;;;;2.33;2.00;;;;;;;;5009941;28;50970;-64
2022/07/28 11:17:56;;;;;;;;;2.67;2.00;;;;;;;;5003728;28;51190;-65
2022/07/28 11:20:22;;;;;;;;;3.67;3.67;;;;;;;;5014266;28;51072;-63
2022/07/28 11:22:47;;;;;;;;;4.00;4.00;;;;;;;;5014989;28;50882;-65
2022/07/28 11:25:13;;;;;;;;;1.00;1.00;;;;;;;;5014327;28;50992;-64
2022/07/28 11:27:50;;;;;;;;;1.00;1.00;;;;;;;;5013741;28;50919;-63
2022/07/28 11:30:26;;;;;;;;;3.00;3.00;;;;;;;;5014784;28;50957;-64
2022/07/28 11:32:54;;;;;;;;;0.33;0.33;;;;;;;;5014521;28;51341;-65
2022/07/28 11:35:45;;;;;;;;;1.00;1.00;;;;;;;;5013599;28;51829;-65
2022/07/28 11:38:11;;;;;;;;;0.67;0.00;;;;;;;;5012640;28;51016;-64
2022/07/28 11:40:37;;;;;;;;;1.00;1.00;;;;;;;;5023205;28;51014;-63
2022/07/28 11:43:25;;;;;;;;;3.00;3.00;;;;;;;;5014537;28;51137;-63
2022/07/28 11:46:07;;;;;;;;;4.00;4.00;;;;;;;;5013201;28;51314;-64
2022/07/28 11:48:33;;;;;;;;;3.33;3.33;;;;;;;;5013993;28;50972;-69
2022/07/28 11:51:01;;;;;;;;;4.00;3.00;;;;;;;;5018870;28;51086;-65
2022/07/28 11:53:40;;;;;;;;;4.00;4.00;;;;;;;;5022030;28;52032;-64
2022/07/28 11:56:06;;;;;;;;;4.00;3.67;;;;;;;;5028526;28;51129;-65
2022/07/28 11:58:31;;;;;;;;;2.33;2.33;;;;;;;;5013481;28;51110;-66
2022/07/28 12:01:10;;;;;;;;;2.00;2.00;;;;;;;;5008889;28;51094;-65
2022/07/28 12:03:37;;;;;;;;;3.00;3.00;;;;;;;;5034040;28;51008;-64
2022/07/28 12:06:03;;;;;;;;;2.33;2.33;;;;;;;;5033100;28;51981;-63
2022/07/28 12:08:28;;;;;;;;;3.67;2.00;;;;;;;;5033839;28;51017;-65
2022/07/28 12:10:54;;;;;;;;;3.00;3.00;;;;;;;;5027406;28;51074;-65
2022/07/28 12:13:24;;;;;;;;;3.00;3.00;;;;;;;;5027820;28;51025;-64
2022/07/28 12:15:49;;;;;;;;;5.00;5.00;;;;;;;;5010007;28;52100;-63
2022/07/28 12:18:15;;;;;;;;;6.00;5.00;;;;;;;;5022649;28;50786;-63
2022/07/28 12:20:43;;;;;;;;;2.67;2.67;;;;;;;;5033578;28;51055;-64
2022/07/28 12:23:09;;;;;;;;;3.67;3.67;;;;;;;;5022695;28;51262;-63
2022/07/28 12:25:45;;;;;;;;;3.00;3.00;;;;;;;;5013537;28;51766;-67
2022/07/28 12:28:13;;;;;;;;;2.00;2.00;;;;;;;;5012972;28;51058;-64
2022/07/28 12:30:39;;;;;;;;;5.00;5.00;;;;;;;;5013791;28;51125;-64
2022/07/28 12:33:14;;;;;;;;;3.67;2.67;;;;;;;;5014156;28;50993;-64
2022/07/28 12:35:39;;;;;;;;;2.00;2.00;;;;;;;;5012324;28;52605;-65
2022/07/28 12:38:05;;;;;;;;;4.00;2.67;;;;;;;;5013453;28;50978;-64
2022/07/28 12:40:30;;;;;;;;;3.00;3.00;;;;;;;;5013763;28;51026;-65
2022/07/28 12:42:56;;;;;;;;;2.00;2.00;;;;;;;;5013571;28;51333;-64
2022/07/28 12:45:21;;;;;;;;;3.67;3.00;;;;;;;;5007022;28;53267;-62
2022/07/28 12:47:46;;;;;;;;;4.00;3.33;;;;;;;;5010198;28;51163;-64
2022/07/28 12:50:15;;;;;;;;;3.67;3.00;;;;;;;;5013047;28;51566;-63
2022/07/28 12:52:42;;;;;;;;;3.00;2.33;;;;;;;;5016179;28;51114;-64
2022/07/28 12:55:24;;;;;;;;;0.33;0.00;;;;;;;;5032836;28;51144;-64
2022/07/28 12:57:51;;;;;;;;;2.33;2.33;;;;;;;;5012616;28;51132;-65
2022/07/28 13:00:18;;;;;;;;;3.00;3.00;;;;;;;;5012224;28;51120;-65
2022/07/28 13:02:43;;;;;;;;;4.33;4.33;;;;;;;;5001424;28;50953;-64
2022/07/28 13:05:09;;;;;;;;;5.67;5.67;;;;;;;;5013169;28;52857;-63
2022/07/28 13:07:35;;;;;;;;;3.00;3.00;;;;;;;;5014758;28;50933;-64
2022/07/28 13:10:01;;;;;;;;;3.67;3.67;;;;;;;;5014277;28;50936;-64
2022/07/28 13:12:29;;;;;;;;;5.00;5.00;;;;;;;;5013121;28;51411;-64
2022/07/28 13:14:55;;;;;;;;;6.33;5.00;;;;;;;;5014392;28;51845;-64
2022/07/28 13:17:21;;;;;;;;;9.33;9.00;;;;;;;;5004061;28;51192;-65
2022/07/28 13:19:47;;;;;;;;;7.00;7.00;;;;;;;;5026427;28;51087;-64
2022/07/28 13:22:32;;;;;;;;;6.00;5.33;;;;;;;;5013906;28;51023;-64
2022/07/28 13:24:58;;;;;;;;;6.67;6.67;;;;;;;;5012449;28;52245;-63
2022/07/28 13:27:24;;;;;;;;;5.67;4.67;;;;;;;;5013081;28;51096;-64
2022/07/28 13:29:49;;;;;;;;;6.00;6.00;;;;;;;;5012392;28;51236;-64
2022/07/28 13:32:14;;;;;;;;;7.00;7.00;;;;;;;;5012920;28;51378;-64
2022/07/28 13:34:41;;;;;;;;;5.00;4.67;;;;;;;;5012400;28;52199;-64
2022/07/28 13:37:06;;;;;;;;;10.33;10.33;;;;;;;;5013094;28;50994;-64
2022/07/28 13:39:31;;;;;;;;;9.67;8.67;;;;;;;;5012148;28;50937;-64
2022/07/28 13:41:57;;;;;;;;;6.00;6.00;;;;;;;;5012553;28;50878;-65
2022/07/28 13:44:22;;;;;;;;;5.67;5.00;;;;;;;;5012697;28;51986;-65
2022/07/28 13:46:47;;;;;;;;;3.00;3.00;;;;;;;;5013668;28;51089;-66
2022/07/28 13:49:13;;;;;;;;;3.00;3.00;;;;;;;;5013877;28;51089;-65
2022/07/28 13:51:38;;;;;;;;;2.00;2.00;;;;;;;;5013364;28;51244;-64
2022/07/28 13:54:03;;;;;;;;;4.00;4.00;;;;;;;;5022981;28;50919;-64
2022/07/28 13:56:29;;;;;;;;;4.00;4.00;;;;;;;;5012301;28;50803;-63
2022/07/28 13:58:54;;;;;;;;;4.67;4.00;;;;;;;;5012438;28;51101;-64
2022/07/28 14:01:19;;;;;;;;;4.67;4.00;;;;;;;;5018836;28;51259;-65
2022/07/28 14:03:44;;;;;;;;;4.00;3.67;;;;;;;;5032025;28;52223;-64
2022/07/28 14:06:11;;;;;;;;;4.00;4.00;;;;;;;;5027229;28;50882;-64
2022/07/28 14:08:36;;;;;;;;;4.67;3.33;;;;;;;;5012223;28;51104;-64
2022/07/28 14:11:02;;;;;;;;;3.00;3.00;;;;;;;;5012494;28;51340;-64
2022/07/28 14:13:27;;;;;;;;;3.00;2.33;;;;;;;;5012339;28;51994;-65
2022/07/28 14:15:53;;;;;;;;;4.00;4.00;;;;;;;;5006101;28;51059;-65
2022/07/28 14:18:18;;;;;;;;;2.33;2.33;;;;;;;;5005628;28;50948;-65
2022/07/28 14:20:43;;;;;;;;;2.00;2.00;;;;;;;;5012023;28;51214;-64
2022/07/28 14:23:08;;;;;;;;;3.67;3.67;;;;;;;;5012012;28;51931;-63
2022/07/28 14:25:34;;;;;;;;;3.00;3.00;;;;;;;;5012205;28;51076;-65
2022/07/28 14:27:59;;;;;;;;;3.00;3.00;;;;;;;;5011499;28;51099;-64
2022/07/28 14:30:25;;;;;;;;;3.00;2.67;;;;;;;;5010973;28;51144;-63
2022/07/28 14:32:51;;;;;;;;;4.00;4.00;;;;;;;;5009182;28;51198;-63
2022/07/28 14:35:16;;;;;;;;;3.00;3.00;;;;;;;;5010657;28;51007;-64
2022/07/28 14:37:42;;;;;;;;;3.00;3.00;;;;;;;;5011381;28;50956;-63
2022/07/28 14:40:07;;;;;;;;;4.00;4.00;;;;;;;;5012283;28;50944;-64
2022/07/28 14:42:32;;;;;;;;;4.00;4.00;;;;;;;;5009211;28;51849;-66
2022/07/28 14:44:58;;;;;;;;;2.33;2.33;;;;;;;;5011802;28;51050;-64